sensor_id;sensor_type;location;lat;lon;timestamp;P1;durP1;ratioP1;P2;durP2;ratioP2
21860;SDS011;11095;48.066;8.540;2023-09-30T00:00:16;10.00;;;4.35;;
21860;SDS011;11095;48.066;8.540;2023-09-30T00:02:42;10.70;;;4.60;;
21860;SDS011;11095;48.066;8.540;2023-09-30T00:05:08;8.18;;;4.22;;
21860;SDS011;11095;48.066;8.540;2023-09-30T00:07:35;9.15;;;4.15;;
21860;SDS011;11095;48.066;8.540;2023-09-30T00:10:01;9.43;;;3.85;;
21860;SDS011;11095;48.066;8.540;2023-09-30T00:12:28;9.38;;;4.18;;
21860;SDS011;11095;48.066;8.540;2023-09-30T00:14:53;8.73;;;4.20;;
21860;SDS011;11095;48.066;8.540;2023-09-30T00:17:19;7.95;;;3.60;;
21860;SDS011;11095;48.066;8.540;2023-09-30T00:19:45;9.75;;;4.40;;
21860;SDS011;11095;48.066;8.540;2023-09-30T00:22:11;9.07;;;4.43;;
21860;SDS011;11095;48.066;8.540;2023-09-30T00:24:36;10.90;;;4.63;;
21860;SDS011;11095;48.066;8.540;2023-09-30T00:27:02;9.63;;;4.47;;
21860;SDS011;11095;48.066;8.540;2023-09-30T00:29:27;8.30;;;3.75;;
21860;SDS011;11095;48.066;8.540;2023-09-30T00:31:53;9.55;;;4.28;;
21860;SDS011;11095;48.066;8.540;2023-09-30T00:34:19;7.22;;;4.00;;
21860;SDS011;11095;48.066;8.540;2023-09-30T00:36:44;8.38;;;4.18;;
21860;SDS011;11095;48.066;8.540;2023-09-30T00:39:10;7.85;;;3.88;;
21860;SDS011;11095;48.066;8.540;2023-09-30T00:41:38;7.85;;;3.92;;
21860;SDS011;11095;48.066;8.540;2023-09-30T00:44:04;10.02;;;4.40;;
21860;SDS011;11095;48.066;8.540;2023-09-30T00:46:31;8.88;;;4.22;;
21860;SDS011;11095;48.066;8.540;2023-09-30T00:48:59;10.00;;;4.28;;
21860;SDS011;11095;48.066;8.540;2023-09-30T00:51:25;10.18;;;4.50;;
21860;SDS011;11095;48.066;8.540;2023-09-30T00:53:51;7.40;;;3.85;;
21860;SDS011;11095;48.066;8.540;2023-09-30T00:56:18;11.70;;;4.90;;
21860;SDS011;11095;48.066;8.540;2023-09-30T00:58:46;9.07;;;4.50;;
21860;SDS011;11095;48.066;8.540;2023-09-30T01:01:16;9.63;;;4.50;;
21860;SDS011;11095;48.066;8.540;2023-09-30T01:03:41;8.63;;;4.40;;
21860;SDS011;11095;48.066;8.540;2023-09-30T01:06:07;9.07;;;4.18;;
21860;SDS011;11095;48.066;8.540;2023-09-30T01:08:33;9.82;;;4.55;;
21860;SDS011;11095;48.066;8.540;2023-09-30T01:10:59;8.32;;;3.95;;
21860;SDS011;11095;48.066;8.540;2023-09-30T01:13:35;7.03;;;3.88;;
21860;SDS011;11095;48.066;8.540;2023-09-30T01:16:03;7.43;;;3.72;;
21860;SDS011;11095;48.066;8.540;2023-09-30T01:18:32;9.18;;;4.20;;
21860;SDS011;11095;48.066;8.540;2023-09-30T01:21:01;8.63;;;3.88;;
21860;SDS011;11095;48.066;8.540;2023-09-30T01:23:32;7.85;;;4.25;;
21860;SDS011;11095;48.066;8.540;2023-09-30T01:26:02;10.25;;;4.53;;
21860;SDS011;11095;48.066;8.540;2023-09-30T01:28:29;7.88;;;3.92;;
21860;SDS011;11095;48.066;8.540;2023-09-30T01:30:55;9.75;;;4.35;;
21860;SDS011;11095;48.066;8.540;2023-09-30T01:33:21;10.32;;;4.72;;
21860;SDS011;11095;48.066;8.540;2023-09-30T01:35:47;9.98;;;4.38;;
21860;SDS011;11095;48.066;8.540;2023-09-30T01:38:13;10.02;;;4.20;;
21860;SDS011;11095;48.066;8.540;2023-09-30T01:40:38;9.20;;;4.40;;
21860;SDS011;11095;48.066;8.540;2023-09-30T01:43:04;10.35;;;4.95;;
21860;SDS011;11095;48.066;8.540;2023-09-30T01:45:30;9.25;;;4.38;;
21860;SDS011;11095;48.066;8.540;2023-09-30T01:47:55;9.82;;;4.85;;
21860;SDS011;11095;48.066;8.540;2023-09-30T01:50:21;8.68;;;4.60;;
21860;SDS011;11095;48.066;8.540;2023-09-30T01:52:46;10.20;;;4.65;;
21860;SDS011;11095;48.066;8.540;2023-09-30T01:55:12;8.63;;;4.60;;
21860;SDS011;11095;48.066;8.540;2023-09-30T01:57:38;10.48;;;4.85;;
21860;SDS011;11095;48.066;8.540;2023-09-30T02:00:04;8.98;;;4.38;;
21860;SDS011;11095;48.066;8.540;2023-09-30T02:02:30;9.75;;;4.80;;
21860;SDS011;11095;48.066;8.540;2023-09-30T02:04:56;10.48;;;4.93;;
21860;SDS011;11095;48.066;8.540;2023-09-30T02:07:22;9.85;;;4.53;;
21860;SDS011;11095;48.066;8.540;2023-09-30T02:09:47;8.73;;;4.40;;
21860;SDS011;11095;48.066;8.540;2023-09-30T02:12:14;10.23;;;4.80;;
21860;SDS011;11095;48.066;8.540;2023-09-30T02:14:39;11.90;;;5.50;;
21860;SDS011;11095;48.066;8.540;2023-09-30T02:17:05;10.93;;;5.57;;
21860;SDS011;11095;48.066;8.540;2023-09-30T02:19:31;10.10;;;5.00;;
21860;SDS011;11095;48.066;8.540;2023-09-30T02:21:58;10.20;;;4.70;;
21860;SDS011;11095;48.066;8.540;2023-09-30T02:24:24;9.52;;;4.75;;
21860;SDS011;11095;48.066;8.540;2023-09-30T02:26:50;8.60;;;4.15;;
21860;SDS011;11095;48.066;8.540;2023-09-30T02:29:15;9.48;;;4.75;;
21860;SDS011;11095;48.066;8.540;2023-09-30T02:31:41;8.80;;;4.57;;
21860;SDS011;11095;48.066;8.540;2023-09-30T02:34:07;9.60;;;4.45;;
21860;SDS011;11095;48.066;8.540;2023-09-30T02:36:33;9.15;;;4.70;;
21860;SDS011;11095;48.066;8.540;2023-09-30T02:39:04;9.35;;;4.43;;
21860;SDS011;11095;48.066;8.540;2023-09-30T02:41:29;10.68;;;4.32;;
21860;SDS011;11095;48.066;8.540;2023-09-30T02:43:55;8.30;;;4.18;;
21860;SDS011;11095;48.066;8.540;2023-09-30T02:46:20;9.40;;;4.63;;
21860;SDS011;11095;48.066;8.540;2023-09-30T02:48:46;10.25;;;4.75;;
21860;SDS011;11095;48.066;8.540;2023-09-30T02:51:12;10.30;;;5.38;;
21860;SDS011;11095;48.066;8.540;2023-09-30T02:53:37;7.55;;;4.25;;
21860;SDS011;11095;48.066;8.540;2023-09-30T02:56:03;9.23;;;4.70;;
21860;SDS011;11095;48.066;8.540;2023-09-30T02:58:29;11.57;;;4.95;;
21860;SDS011;11095;48.066;8.540;2023-09-30T03:00:55;9.73;;;4.88;;
21860;SDS011;11095;48.066;8.540;2023-09-30T03:03:21;11.77;;;5.28;;
21860;SDS011;11095;48.066;8.540;2023-09-30T03:05:47;8.65;;;4.40;;
21860;SDS011;11095;48.066;8.540;2023-09-30T03:08:15;9.73;;;4.50;;
21860;SDS011;11095;48.066;8.540;2023-09-30T03:10:40;9.57;;;4.85;;
21860;SDS011;11095;48.066;8.540;2023-09-30T03:13:06;9.93;;;4.80;;
21860;SDS011;11095;48.066;8.540;2023-09-30T03:15:34;7.57;;;4.00;;
21860;SDS011;11095;48.066;8.540;2023-09-30T03:18:00;9.18;;;4.57;;
21860;SDS011;11095;48.066;8.540;2023-09-30T03:20:25;9.30;;;4.57;;
21860;SDS011;11095;48.066;8.540;2023-09-30T03:22:51;8.52;;;4.35;;
21860;SDS011;11095;48.066;8.540;2023-09-30T03:25:18;9.60;;;4.82;;
21860;SDS011;11095;48.066;8.540;2023-09-30T03:27:45;9.85;;;4.57;;
21860;SDS011;11095;48.066;8.540;2023-09-30T03:30:12;9.00;;;4.43;;
21860;SDS011;11095;48.066;8.540;2023-09-30T03:35:08;8.85;;;4.35;;
21860;SDS011;11095;48.066;8.540;2023-09-30T03:37:36;7.60;;;4.30;;
21860;SDS011;11095;48.066;8.540;2023-09-30T03:40:02;9.80;;;4.63;;
21860;SDS011;11095;48.066;8.540;2023-09-30T03:42:38;7.75;;;4.00;;
21860;SDS011;11095;48.066;8.540;2023-09-30T03:47:35;9.57;;;3.90;;
21860;SDS011;11095;48.066;8.540;2023-09-30T03:50:03;8.52;;;4.63;;
21860;SDS011;11095;48.066;8.540;2023-09-30T03:52:30;11.85;;;5.13;;
21860;SDS011;11095;48.066;8.540;2023-09-30T03:54:59;11.27;;;5.05;;
21860;SDS011;11095;48.066;8.540;2023-09-30T03:57:25;8.50;;;4.68;;
21860;SDS011;11095;48.066;8.540;2023-09-30T03:59:51;9.82;;;5.40;;
21860;SDS011;11095;48.066;8.540;2023-09-30T04:02:17;11.95;;;4.82;;
21860;SDS011;11095;48.066;8.540;2023-09-30T04:04:44;9.70;;;4.88;;
21860;SDS011;11095;48.066;8.540;2023-09-30T04:07:11;9.82;;;4.80;;
21860;SDS011;11095;48.066;8.540;2023-09-30T04:09:37;7.65;;;4.00;;
21860;SDS011;11095;48.066;8.540;2023-09-30T04:12:03;10.77;;;5.28;;
21860;SDS011;11095;48.066;8.540;2023-09-30T04:14:29;10.07;;;4.70;;
21860;SDS011;11095;48.066;8.540;2023-09-30T04:16:54;8.48;;;4.05;;
21860;SDS011;11095;48.066;8.540;2023-09-30T04:19:20;11.13;;;5.32;;
21860;SDS011;11095;48.066;8.540;2023-09-30T04:21:46;11.52;;;5.20;;
21860;SDS011;11095;48.066;8.540;2023-09-30T04:24:12;12.15;;;5.50;;
21860;SDS011;11095;48.066;8.540;2023-09-30T04:26:37;12.48;;;5.93;;
21860;SDS011;11095;48.066;8.540;2023-09-30T04:29:04;14.27;;;5.60;;
21860;SDS011;11095;48.066;8.540;2023-09-30T04:31:30;11.63;;;5.30;;
21860;SDS011;11095;48.066;8.540;2023-09-30T04:33:55;10.85;;;5.18;;
21860;SDS011;11095;48.066;8.540;2023-09-30T04:36:22;9.38;;;4.63;;
21860;SDS011;11095;48.066;8.540;2023-09-30T04:38:48;12.57;;;5.38;;
21860;SDS011;11095;48.066;8.540;2023-09-30T04:41:14;9.70;;;4.55;;
21860;SDS011;11095;48.066;8.540;2023-09-30T04:43:41;8.43;;;4.50;;
21860;SDS011;11095;48.066;8.540;2023-09-30T04:46:08;9.63;;;4.78;;
21860;SDS011;11095;48.066;8.540;2023-09-30T04:48:34;8.60;;;4.80;;
21860;SDS011;11095;48.066;8.540;2023-09-30T04:51:00;10.05;;;4.72;;
21860;SDS011;11095;48.066;8.540;2023-09-30T04:53:29;8.38;;;4.15;;
21860;SDS011;11095;48.066;8.540;2023-09-30T04:55:55;9.02;;;4.32;;
21860;SDS011;11095;48.066;8.540;2023-09-30T04:58:21;8.05;;;4.03;;
21860;SDS011;11095;48.066;8.540;2023-09-30T05:00:48;9.43;;;4.78;;
21860;SDS011;11095;48.066;8.540;2023-09-30T05:03:14;12.85;;;5.72;;
21860;SDS011;11095;48.066;8.540;2023-09-30T05:05:40;10.48;;;4.80;;
21860;SDS011;11095;48.066;8.540;2023-09-30T05:08:06;8.27;;;4.28;;
21860;SDS011;11095;48.066;8.540;2023-09-30T05:10:33;10.00;;;4.93;;
21860;SDS011;11095;48.066;8.540;2023-09-30T05:12:58;9.55;;;4.68;;
21860;SDS011;11095;48.066;8.540;2023-09-30T05:15:24;9.27;;;4.32;;
21860;SDS011;11095;48.066;8.540;2023-09-30T05:17:50;8.63;;;4.40;;
21860;SDS011;11095;48.066;8.540;2023-09-30T05:20:16;10.15;;;4.90;;
21860;SDS011;11095;48.066;8.540;2023-09-30T05:22:42;8.60;;;4.20;;
21860;SDS011;11095;48.066;8.540;2023-09-30T05:25:11;9.43;;;5.07;;
21860;SDS011;11095;48.066;8.540;2023-09-30T05:27:43;10.07;;;4.85;;
21860;SDS011;11095;48.066;8.540;2023-09-30T05:30:09;9.98;;;4.75;;
21860;SDS011;11095;48.066;8.540;2023-09-30T05:32:40;9.90;;;4.78;;
21860;SDS011;11095;48.066;8.540;2023-09-30T05:35:06;10.70;;;5.35;;
21860;SDS011;11095;48.066;8.540;2023-09-30T05:37:41;7.97;;;4.53;;
21860;SDS011;11095;48.066;8.540;2023-09-30T05:40:08;9.60;;;4.75;;
21860;SDS011;11095;48.066;8.540;2023-09-30T05:42:45;9.27;;;4.95;;
21860;SDS011;11095;48.066;8.540;2023-09-30T05:45:11;9.63;;;4.63;;
21860;SDS011;11095;48.066;8.540;2023-09-30T05:47:38;9.00;;;4.50;;
21860;SDS011;11095;48.066;8.540;2023-09-30T05:50:04;8.57;;;4.53;;
21860;SDS011;11095;48.066;8.540;2023-09-30T05:52:32;10.38;;;5.00;;
21860;SDS011;11095;48.066;8.540;2023-09-30T05:54:58;9.23;;;4.53;;
21860;SDS011;11095;48.066;8.540;2023-09-30T05:57:25;9.15;;;4.68;;
21860;SDS011;11095;48.066;8.540;2023-09-30T05:59:52;10.05;;;4.97;;
21860;SDS011;11095;48.066;8.540;2023-09-30T06:02:17;9.15;;;4.43;;
21860;SDS011;11095;48.066;8.540;2023-09-30T06:04:44;11.18;;;4.88;;
21860;SDS011;11095;48.066;8.540;2023-09-30T06:07:11;8.70;;;4.63;;
21860;SDS011;11095;48.066;8.540;2023-09-30T06:09:37;9.73;;;4.30;;
21860;SDS011;11095;48.066;8.540;2023-09-30T06:12:02;8.98;;;4.05;;
21860;SDS011;11095;48.066;8.540;2023-09-30T06:14:31;8.73;;;4.45;;
21860;SDS011;11095;48.066;8.540;2023-09-30T06:16:57;10.00;;;4.57;;
21860;SDS011;11095;48.066;8.540;2023-09-30T06:19:23;8.48;;;4.70;;
21860;SDS011;11095;48.066;8.540;2023-09-30T06:21:50;8.65;;;4.40;;
21860;SDS011;11095;48.066;8.540;2023-09-30T06:24:16;8.23;;;4.15;;
21860;SDS011;11095;48.066;8.540;2023-09-30T06:26:44;8.95;;;4.53;;
21860;SDS011;11095;48.066;8.540;2023-09-30T06:29:10;6.85;;;3.85;;
21860;SDS011;11095;48.066;8.540;2023-09-30T06:31:36;9.38;;;4.30;;
21860;SDS011;11095;48.066;8.540;2023-09-30T06:34:02;9.23;;;4.38;;
21860;SDS011;11095;48.066;8.540;2023-09-30T06:36:28;7.97;;;4.25;;
21860;SDS011;11095;48.066;8.540;2023-09-30T06:38:54;7.75;;;4.35;;
21860;SDS011;11095;48.066;8.540;2023-09-30T06:41:20;6.65;;;3.67;;
21860;SDS011;11095;48.066;8.540;2023-09-30T06:43:45;8.02;;;3.95;;
21860;SDS011;11095;48.066;8.540;2023-09-30T06:46:11;10.30;;;4.25;;
21860;SDS011;11095;48.066;8.540;2023-09-30T06:48:38;10.15;;;4.60;;
21860;SDS011;11095;48.066;8.540;2023-09-30T06:51:05;7.57;;;4.18;;
21860;SDS011;11095;48.066;8.540;2023-09-30T06:53:31;7.75;;;4.50;;
21860;SDS011;11095;48.066;8.540;2023-09-30T06:55:56;8.20;;;4.30;;
21860;SDS011;11095;48.066;8.540;2023-09-30T06:58:22;7.15;;;3.67;;
21860;SDS011;11095;48.066;8.540;2023-09-30T07:00:51;8.15;;;4.15;;
21860;SDS011;11095;48.066;8.540;2023-09-30T07:03:20;9.20;;;4.28;;
21860;SDS011;11095;48.066;8.540;2023-09-30T07:05:45;6.82;;;3.75;;
21860;SDS011;11095;48.066;8.540;2023-09-30T07:08:14;7.57;;;3.88;;
21860;SDS011;11095;48.066;8.540;2023-09-30T07:10:41;6.95;;;3.60;;
21860;SDS011;11095;48.066;8.540;2023-09-30T07:13:07;8.05;;;4.28;;
21860;SDS011;11095;48.066;8.540;2023-09-30T07:15:33;6.78;;;3.90;;
21860;SDS011;11095;48.066;8.540;2023-09-30T07:17:59;6.93;;;3.97;;
21860;SDS011;11095;48.066;8.540;2023-09-30T07:20:24;8.00;;;3.72;;
21860;SDS011;11095;48.066;8.540;2023-09-30T07:22:51;6.25;;;3.45;;
21860;SDS011;11095;48.066;8.540;2023-09-30T07:25:17;6.75;;;3.55;;
21860;SDS011;11095;48.066;8.540;2023-09-30T07:27:43;9.30;;;4.47;;
21860;SDS011;11095;48.066;8.540;2023-09-30T07:30:10;7.75;;;4.55;;
21860;SDS011;11095;48.066;8.540;2023-09-30T07:32:37;7.75;;;4.30;;
21860;SDS011;11095;48.066;8.540;2023-09-30T07:35:03;8.15;;;4.30;;
21860;SDS011;11095;48.066;8.540;2023-09-30T07:37:29;7.78;;;4.03;;
21860;SDS011;11095;48.066;8.540;2023-09-30T07:39:54;9.15;;;4.25;;
21860;SDS011;11095;48.066;8.540;2023-09-30T07:42:20;7.35;;;3.80;;
21860;SDS011;11095;48.066;8.540;2023-09-30T07:44:47;8.13;;;4.00;;
21860;SDS011;11095;48.066;8.540;2023-09-30T07:47:13;6.05;;;3.50;;
21860;SDS011;11095;48.066;8.540;2023-09-30T07:49:39;8.55;;;4.03;;
21860;SDS011;11095;48.066;8.540;2023-09-30T07:52:05;9.50;;;4.43;;
21860;SDS011;11095;48.066;8.540;2023-09-30T07:54:31;8.30;;;4.32;;
21860;SDS011;11095;48.066;8.540;2023-09-30T07:56:56;10.15;;;4.80;;
21860;SDS011;11095;48.066;8.540;2023-09-30T07:59:23;8.52;;;4.43;;
21860;SDS011;11095;48.066;8.540;2023-09-30T08:01:50;8.32;;;4.50;;
21860;SDS011;11095;48.066;8.540;2023-09-30T08:04:16;8.02;;;4.47;;
21860;SDS011;11095;48.066;8.540;2023-09-30T08:06:42;7.93;;;4.45;;
21860;SDS011;11095;48.066;8.540;2023-09-30T08:09:08;9.07;;;4.53;;
21860;SDS011;11095;48.066;8.540;2023-09-30T08:11:38;7.13;;;3.72;;
21860;SDS011;11095;48.066;8.540;2023-09-30T08:14:04;9.85;;;4.47;;
21860;SDS011;11095;48.066;8.540;2023-09-30T08:16:40;8.68;;;4.75;;
21860;SDS011;11095;48.066;8.540;2023-09-30T08:19:07;9.48;;;4.53;;
21860;SDS011;11095;48.066;8.540;2023-09-30T08:21:33;8.43;;;4.22;;
21860;SDS011;11095;48.066;8.540;2023-09-30T08:23:59;9.40;;;4.57;;
21860;SDS011;11095;48.066;8.540;2023-09-30T08:26:25;9.13;;;4.35;;
21860;SDS011;11095;48.066;8.540;2023-09-30T08:28:51;10.52;;;4.93;;
21860;SDS011;11095;48.066;8.540;2023-09-30T08:31:17;10.20;;;4.72;;
21860;SDS011;11095;48.066;8.540;2023-09-30T08:33:42;8.95;;;4.50;;
21860;SDS011;11095;48.066;8.540;2023-09-30T08:36:10;9.05;;;4.03;;
21860;SDS011;11095;48.066;8.540;2023-09-30T08:38:37;9.90;;;4.53;;
21860;SDS011;11095;48.066;8.540;2023-09-30T08:41:04;8.00;;;4.35;;
21860;SDS011;11095;48.066;8.540;2023-09-30T08:43:30;9.45;;;4.15;;
21860;SDS011;11095;48.066;8.540;2023-09-30T08:46:01;10.52;;;4.45;;
21860;SDS011;11095;48.066;8.540;2023-09-30T08:48:29;8.80;;;3.90;;
21860;SDS011;11095;48.066;8.540;2023-09-30T08:50:59;8.32;;;4.13;;
21860;SDS011;11095;48.066;8.540;2023-09-30T08:53:26;7.40;;;3.53;;
21860;SDS011;11095;48.066;8.540;2023-09-30T08:55:55;6.95;;;3.42;;
21860;SDS011;11095;48.066;8.540;2023-09-30T09:00:57;7.85;;;3.55;;
21860;SDS011;11095;48.066;8.540;2023-09-30T09:03:22;7.35;;;2.85;;
21860;SDS011;11095;48.066;8.540;2023-09-30T09:05:54;6.13;;;3.13;;
21860;SDS011;11095;48.066;8.540;2023-09-30T09:08:21;6.55;;;3.38;;
21860;SDS011;11095;48.066;8.540;2023-09-30T09:13:24;7.85;;;3.30;;
21860;SDS011;11095;48.066;8.540;2023-09-30T09:16:09;6.78;;;2.90;;
21860;SDS011;11095;48.066;8.540;2023-09-30T09:18:35;8.90;;;3.60;;
21860;SDS011;11095;48.066;8.540;2023-09-30T09:21:20;6.65;;;3.08;;
21860;SDS011;11095;48.066;8.540;2023-09-30T09:23:53;7.50;;;3.42;;
21860;SDS011;11095;48.066;8.540;2023-09-30T09:26:26;6.90;;;3.40;;
21860;SDS011;11095;48.066;8.540;2023-09-30T09:28:57;6.47;;;3.30;;
21860;SDS011;11095;48.066;8.540;2023-09-30T09:31:24;6.93;;;3.30;;
21860;SDS011;11095;48.066;8.540;2023-09-30T09:33:53;7.72;;;3.60;;
21860;SDS011;11095;48.066;8.540;2023-09-30T09:36:19;8.27;;;3.80;;
21860;SDS011;11095;48.066;8.540;2023-09-30T09:38:49;6.60;;;3.28;;
21860;SDS011;11095;48.066;8.540;2023-09-30T09:41:18;7.90;;;4.03;;
21860;SDS011;11095;48.066;8.540;2023-09-30T09:43:44;12.82;;;5.65;;
21860;SDS011;11095;48.066;8.540;2023-09-30T09:46:14;11.07;;;5.32;;
21860;SDS011;11095;48.066;8.540;2023-09-30T09:48:41;11.63;;;5.80;;
21860;SDS011;11095;48.066;8.540;2023-09-30T09:51:11;13.30;;;6.55;;
21860;SDS011;11095;48.066;8.540;2023-09-30T09:53:37;13.05;;;6.38;;
21860;SDS011;11095;48.066;8.540;2023-09-30T09:56:05;13.27;;;6.47;;
21860;SDS011;11095;48.066;8.540;2023-09-30T09:58:35;12.35;;;6.10;;
21860;SDS011;11095;48.066;8.540;2023-09-30T10:01:04;11.07;;;5.75;;
21860;SDS011;11095;48.066;8.540;2023-09-30T10:03:31;12.38;;;6.10;;
21860;SDS011;11095;48.066;8.540;2023-09-30T10:05:58;11.93;;;6.28;;
21860;SDS011;11095;48.066;8.540;2023-09-30T10:08:36;11.63;;;5.93;;
21860;SDS011;11095;48.066;8.540;2023-09-30T10:11:05;11.15;;;5.97;;
21860;SDS011;11095;48.066;8.540;2023-09-30T10:13:50;12.15;;;6.18;;
21860;SDS011;11095;48.066;8.540;2023-09-30T10:19:11;12.75;;;6.20;;
21860;SDS011;11095;48.066;8.540;2023-09-30T10:21:38;13.13;;;6.53;;
21860;SDS011;11095;48.066;8.540;2023-09-30T10:30:03;12.38;;;6.07;;
21860;SDS011;11095;48.066;8.540;2023-09-30T10:35:19;12.63;;;6.32;;
21860;SDS011;11095;48.066;8.540;2023-09-30T10:37:46;11.75;;;6.05;;
21860;SDS011;11095;48.066;8.540;2023-09-30T10:40:28;10.43;;;5.60;;
21860;SDS011;11095;48.066;8.540;2023-09-30T10:42:56;11.68;;;6.22;;
21860;SDS011;11095;48.066;8.540;2023-09-30T10:45:42;12.05;;;6.20;;
21860;SDS011;11095;48.066;8.540;2023-09-30T10:51:11;12.70;;;6.57;;
21860;SDS011;11095;48.066;8.540;2023-09-30T10:53:46;12.25;;;6.25;;
21860;SDS011;11095;48.066;8.540;2023-09-30T10:56:22;12.75;;;6.38;;
21860;SDS011;11095;48.066;8.540;2023-09-30T10:58:52;12.25;;;6.55;;
21860;SDS011;11095;48.066;8.540;2023-09-30T11:01:21;12.00;;;6.07;;
21860;SDS011;11095;48.066;8.540;2023-09-30T11:03:49;12.77;;;6.25;;
21860;SDS011;11095;48.066;8.540;2023-09-30T11:06:20;13.05;;;6.75;;
21860;SDS011;11095;48.066;8.540;2023-09-30T11:08:51;12.70;;;8.15;;
21860;SDS011;11095;48.066;8.540;2023-09-30T11:11:19;11.93;;;6.30;;
21860;SDS011;11095;48.066;8.540;2023-09-30T11:13:56;12.57;;;6.07;;
21860;SDS011;11095;48.066;8.540;2023-09-30T11:16:21;12.98;;;6.28;;
21860;SDS011;11095;48.066;8.540;2023-09-30T11:18:52;12.93;;;6.30;;
21860;SDS011;11095;48.066;8.540;2023-09-30T11:21:18;12.23;;;6.03;;
21860;SDS011;11095;48.066;8.540;2023-09-30T11:23:44;13.18;;;6.47;;
21860;SDS011;11095;48.066;8.540;2023-09-30T11:26:10;12.65;;;6.22;;
21860;SDS011;11095;48.066;8.540;2023-09-30T11:28:39;11.52;;;6.15;;
21860;SDS011;11095;48.066;8.540;2023-09-30T11:31:10;13.05;;;6.15;;
21860;SDS011;11095;48.066;8.540;2023-09-30T11:33:53;11.98;;;6.13;;
21860;SDS011;11095;48.066;8.540;2023-09-30T11:36:21;12.07;;;6.13;;
21860;SDS011;11095;48.066;8.540;2023-09-30T11:38:47;10.50;;;5.70;;
21860;SDS011;11095;48.066;8.540;2023-09-30T11:41:15;12.90;;;6.25;;
21860;SDS011;11095;48.066;8.540;2023-09-30T11:44:05;11.73;;;5.55;;
21860;SDS011;11095;48.066;8.540;2023-09-30T11:46:47;13.85;;;6.82;;
21860;SDS011;11095;48.066;8.540;2023-09-30T11:49:39;13.45;;;6.78;;
21860;SDS011;11095;48.066;8.540;2023-09-30T11:52:09;12.65;;;6.88;;
21860;SDS011;11095;48.066;8.540;2023-09-30T11:54:37;14.60;;;7.22;;
21860;SDS011;11095;48.066;8.540;2023-09-30T11:57:08;13.50;;;6.65;;
21860;SDS011;11095;48.066;8.540;2023-09-30T11:59:41;14.35;;;7.18;;
21860;SDS011;11095;48.066;8.540;2023-09-30T12:02:14;13.77;;;6.70;;
21860;SDS011;11095;48.066;8.540;2023-09-30T12:04:41;12.35;;;6.10;;
21860;SDS011;11095;48.066;8.540;2023-09-30T12:07:08;12.48;;;6.40;;
21860;SDS011;11095;48.066;8.540;2023-09-30T12:09:33;14.40;;;6.45;;
21860;SDS011;11095;48.066;8.540;2023-09-30T12:12:02;14.18;;;6.20;;
21860;SDS011;11095;48.066;8.540;2023-09-30T12:14:28;13.00;;;6.63;;
21860;SDS011;11095;48.066;8.540;2023-09-30T12:16:57;14.00;;;6.82;;
21860;SDS011;11095;48.066;8.540;2023-09-30T12:19:22;15.00;;;6.85;;
21860;SDS011;11095;48.066;8.540;2023-09-30T12:21:49;13.55;;;6.50;;
21860;SDS011;11095;48.066;8.540;2023-09-30T12:24:15;14.48;;;6.78;;
21860;SDS011;11095;48.066;8.540;2023-09-30T12:26:46;13.48;;;6.75;;
21860;SDS011;11095;48.066;8.540;2023-09-30T12:29:15;13.70;;;6.57;;
21860;SDS011;11095;48.066;8.540;2023-09-30T12:31:42;13.85;;;6.75;;
21860;SDS011;11095;48.066;8.540;2023-09-30T12:34:09;13.23;;;6.88;;
21860;SDS011;11095;48.066;8.540;2023-09-30T12:36:34;13.95;;;6.65;;
21860;SDS011;11095;48.066;8.540;2023-09-30T12:39:00;15.30;;;7.00;;
21860;SDS011;11095;48.066;8.540;2023-09-30T12:41:25;14.15;;;6.93;;
21860;SDS011;11095;48.066;8.540;2023-09-30T12:43:51;12.85;;;6.57;;
21860;SDS011;11095;48.066;8.540;2023-09-30T12:46:18;12.63;;;6.50;;
21860;SDS011;11095;48.066;8.540;2023-09-30T12:48:43;12.52;;;6.63;;
21860;SDS011;11095;48.066;8.540;2023-09-30T12:51:09;13.45;;;7.05;;
21860;SDS011;11095;48.066;8.540;2023-09-30T12:53:35;12.40;;;6.85;;
21860;SDS011;11095;48.066;8.540;2023-09-30T12:56:01;15.05;;;7.20;;
21860;SDS011;11095;48.066;8.540;2023-09-30T12:58:26;14.02;;;6.72;;
21860;SDS011;11095;48.066;8.540;2023-09-30T13:00:55;13.63;;;7.22;;
21860;SDS011;11095;48.066;8.540;2023-09-30T13:03:22;13.93;;;7.30;;
21860;SDS011;11095;48.066;8.540;2023-09-30T13:05:48;14.35;;;7.05;;
21860;SDS011;11095;48.066;8.540;2023-09-30T13:08:14;14.65;;;6.93;;
21860;SDS011;11095;48.066;8.540;2023-09-30T13:10:40;15.13;;;6.78;;
21860;SDS011;11095;48.066;8.540;2023-09-30T13:13:05;14.60;;;7.22;;
21860;SDS011;11095;48.066;8.540;2023-09-30T13:15:32;14.75;;;6.88;;
21860;SDS011;11095;48.066;8.540;2023-09-30T13:17:58;13.95;;;7.05;;
21860;SDS011;11095;48.066;8.540;2023-09-30T13:20:24;12.63;;;6.18;;
21860;SDS011;11095;48.066;8.540;2023-09-30T13:22:50;15.60;;;7.15;;
21860;SDS011;11095;48.066;8.540;2023-09-30T13:25:16;15.07;;;6.90;;
21860;SDS011;11095;48.066;8.540;2023-09-30T13:27:41;16.63;;;7.05;;
21860;SDS011;11095;48.066;8.540;2023-09-30T13:30:08;13.68;;;7.05;;
21860;SDS011;11095;48.066;8.540;2023-09-30T13:32:35;16.45;;;7.45;;
21860;SDS011;11095;48.066;8.540;2023-09-30T13:35:04;14.55;;;7.10;;
21860;SDS011;11095;48.066;8.540;2023-09-30T13:37:30;13.70;;;6.95;;
21860;SDS011;11095;48.066;8.540;2023-09-30T13:39:58;13.40;;;6.70;;
21860;SDS011;11095;48.066;8.540;2023-09-30T13:42:25;13.40;;;6.70;;
21860;SDS011;11095;48.066;8.540;2023-09-30T13:44:51;14.38;;;6.88;;
21860;SDS011;11095;48.066;8.540;2023-09-30T13:47:16;14.68;;;7.13;;
21860;SDS011;11095;48.066;8.540;2023-09-30T13:49:42;11.68;;;6.75;;
21860;SDS011;11095;48.066;8.540;2023-09-30T13:52:07;13.02;;;6.60;;
21860;SDS011;11095;48.066;8.540;2023-09-30T13:54:33;13.80;;;6.75;;
21860;SDS011;11095;48.066;8.540;2023-09-30T13:56:58;14.30;;;6.90;;
21860;SDS011;11095;48.066;8.540;2023-09-30T13:59:24;13.40;;;6.85;;
21860;SDS011;11095;48.066;8.540;2023-09-30T14:01:50;15.80;;;7.25;;
21860;SDS011;11095;48.066;8.540;2023-09-30T14:04:16;15.13;;;6.93;;
21860;SDS011;11095;48.066;8.540;2023-09-30T14:06:42;12.45;;;6.80;;
21860;SDS011;11095;48.066;8.540;2023-09-30T14:09:07;14.30;;;7.03;;
21860;SDS011;11095;48.066;8.540;2023-09-30T14:11:39;14.32;;;7.07;;
21860;SDS011;11095;48.066;8.540;2023-09-30T14:14:06;13.50;;;6.70;;
21860;SDS011;11095;48.066;8.540;2023-09-30T14:16:34;16.55;;;7.63;;
21860;SDS011;11095;48.066;8.540;2023-09-30T14:19:00;14.50;;;7.20;;
21860;SDS011;11095;48.066;8.540;2023-09-30T14:21:26;13.73;;;6.72;;
21860;SDS011;11095;48.066;8.540;2023-09-30T14:23:52;13.45;;;6.90;;
21860;SDS011;11095;48.066;8.540;2023-09-30T14:26:19;13.82;;;7.10;;
21860;SDS011;11095;48.066;8.540;2023-09-30T14:28:44;15.15;;;7.55;;
21860;SDS011;11095;48.066;8.540;2023-09-30T14:31:10;14.38;;;7.32;;
21860;SDS011;11095;48.066;8.540;2023-09-30T14:33:36;13.90;;;6.88;;
21860;SDS011;11095;48.066;8.540;2023-09-30T14:36:02;15.10;;;7.15;;
21860;SDS011;11095;48.066;8.540;2023-09-30T14:38:31;15.02;;;7.90;;
21860;SDS011;11095;48.066;8.540;2023-09-30T14:40:56;13.10;;;6.88;;
21860;SDS011;11095;48.066;8.540;2023-09-30T14:43:22;15.73;;;7.80;;
21860;SDS011;11095;48.066;8.540;2023-09-30T14:45:48;15.85;;;7.53;;
21860;SDS011;11095;48.066;8.540;2023-09-30T14:48:13;17.30;;;7.93;;
21860;SDS011;11095;48.066;8.540;2023-09-30T14:51:00;11.82;;;6.57;;
21860;SDS011;11095;48.066;8.540;2023-09-30T14:53:25;12.10;;;6.60;;
21860;SDS011;11095;48.066;8.540;2023-09-30T14:55:51;14.90;;;7.65;;
21860;SDS011;11095;48.066;8.540;2023-09-30T14:58:16;16.48;;;7.97;;
21860;SDS011;11095;48.066;8.540;2023-09-30T15:00:42;14.10;;;7.43;;
21860;SDS011;11095;48.066;8.540;2023-09-30T15:03:08;16.02;;;7.57;;
21860;SDS011;11095;48.066;8.540;2023-09-30T15:05:33;15.55;;;7.82;;